Estación Meteorológica Peña el Pijo (Robertgarden) [ 11/24/17 15:33:22 CET ]

Fecha Hora Presion(HPa) Temp (°C) Humedad % Rocio (°C) Viento ( m/s) Direccion Lluvia 1Hora(mm) Lluvia 24H(mm) LLuvia Total(mm)
2017-May-21 01:01:38 1014.900 10.8 67 4.9         1390.83
2017-May-21 02:01:51 1015.000 9.6 72 4.8         1390.83
2017-May-21 03:03:14 1014.200 8.5 75 4.3         1390.83
2017-May-21 04:01:33 1013.500 7.7 78 4.1         1390.83
2017-May-21 05:01:46 1012.600 7.1 79 3.7         1390.83
2017-May-21 06:01:20 1012.400 6.9 81 3.9         1390.83
2017-May-21 07:01:42 1012.500 7.1 82 4.2         1390.83
2017-May-21 08:01:56 1012.600 8.6 82 5.7         1390.83
2017-May-21 09:01:54 1011.900 13.1 75 8.7         1390.83
2017-May-21 10:01:40 1012.500 20.2 41 6.5         1390.83
2017-May-21 11:01:43 1012.000 25.3 28 5.4         1390.83
2017-May-21 12:02:01 1012.300 28.8 20 3.6         1390.83
2017-May-21 13:01:50 1011.900 26.6 21 2.4         1390.83
2017-May-21 14:01:58 1011.500 26.1 20 1.4         1390.83
2017-May-21 15:01:54 1011.500 25.3 23 2.5 2.0 SSW     1390.83
2017-May-21 16:01:48 1011.500 26.1 23 3.1         1390.83
2017-May-21 17:01:46 1010.900 27.9 23 4.7         1390.83
2017-May-21 18:01:57 1010.800 26.3 28 6.2         1390.83
2017-May-21 19:01:42 1010.600 24.3 34 7.3         1390.83
2017-May-21 20:01:43 1010.800 21.6 40 7.4         1390.83
2017-May-21 21:01:55 1011.400 18.5 49 7.6         1390.83
2017-May-21 22:01:54 1011.300 16.6 54 7.2         1390.83
2017-May-21 23:01:39 1012.100 15.5 58 7.3         1390.83

Temperatura Máxima:28°    Temperatura Mínima:
Presión Máxima:1015.000 Hpa    Presión Mínima:1010.600 Hpa


Volver